Time,TemperatureF,DewpointF,PressureIn,WindDirection,WindDirectionDegrees,WindSpeedMPH,WindSpeedGustMPH,Humidity,HourlyPrecipIn,Conditions,Clouds,dailyrainin,SoftwareType,DateUTC
2013-01-27 08:50:00,26.6,24.8,30.50,ESE,115,2.0,9.0,93,0.00,,,0.00,Wunderground v.1.15,2013-01-27 13:50:00,
2013-01-27 09:00:00,27.0,25.0,30.50,South,177,2.0,9.0,92,0.00,,,0.00,Wunderground v.1.15,2013-01-27 14:00:00,
2013-01-27 09:05:00,27.1,24.8,30.50,SE,124,3.0,9.0,91,0.00,,,0.00,Wunderground v.1.15,2013-01-27 14:05:00,
2013-01-27 09:10:00,27.3,25.0,30.50,SSE,167,2.0,9.0,91,0.00,,,0.00,Wunderground v.1.15,2013-01-27 14:10:00,
2013-01-27 09:25:00,27.7,25.4,30.50,SE,124,3.0,3.0,91,0.00,,,0.00,Wunderground v.1.15,2013-01-27 14:25:00,
2013-01-27 09:30:00,27.9,25.6,30.50,SE,138,3.0,9.0,91,0.00,,,0.00,Wunderground v.1.15,2013-01-27 14:30:00,
2013-01-27 09:35:00,28.0,25.7,30.50,SE,146,3.0,9.0,91,0.00,,,0.00,Wunderground v.1.15,2013-01-27 14:35:00,
2013-01-27 09:40:00,28.1,25.5,30.50,ESE,115,3.0,9.0,90,0.00,,,0.00,Wunderground v.1.15,2013-01-27 14:40:00,
2013-01-27 09:45:00,28.1,25.8,30.51,SE,124,4.0,9.0,91,0.00,,,0.00,Wunderground v.1.15,2013-01-27 14:45:00,
2013-01-27 09:50:00,28.3,26.0,30.50,SSW,201,4.0,9.0,91,0.00,,,0.00,Wunderground v.1.15,2013-01-27 14:50:00,
2013-01-27 09:55:00,28.3,25.7,30.51,East,84,3.0,9.0,90,0.00,,,0.00,Wunderground v.1.15,2013-01-27 14:55:00,
2013-01-27 12:55:00,36.6,27.7,30.49,ESE,117,4.0,9.0,70,0.00,,,0.00,Wunderground v.1.15,2013-01-27 17:55:00,
2013-01-27 13:00:00,36.5,28.0,30.48,SSE,162,5.0,5.0,71,0.00,,,0.00,Wunderground v.1.15,2013-01-27 18:00:00,
2013-01-27 13:10:00,36.1,27.9,30.48,South,174,4.0,4.0,72,0.00,,,0.00,Wunderground v.1.15,2013-01-27 18:10:00,
2013-01-27 13:15:00,36.1,28.3,30.48,SSE,163,4.0,5.0,73,0.00,,,0.00,Wunderground v.1.15,2013-01-27 18:15:00,
2013-01-27 13:20:00,36.0,27.8,30.47,SE,146,4.0,4.0,72,0.00,,,0.00,Wunderground v.1.15,2013-01-27 18:20:00,
2013-01-27 15:20:00,40.0,29.2,30.46,SE,143,2.0,9.0,65,0.00,,,0.00,Wunderground v.1.15,2013-01-27 20:20:00,
2013-01-27 15:30:00,39.6,29.2,30.45,SE,124,3.0,3.0,66,0.00,,,0.00,Wunderground v.1.15,2013-01-27 20:30:00,
2013-01-27 15:35:00,39.6,29.2,30.46,SSE,149,2.0,9.0,66,0.00,,,0.00,Wunderground v.1.15,2013-01-27 20:35:00,
2013-01-27 15:40:00,39.6,29.2,30.45,East,87,2.0,9.0,66,0.00,,,0.00,Wunderground v.1.15,2013-01-27 20:40:00,
2013-01-27 18:40:00,35.2,27.4,30.50,SE,129,4.0,9.0,73,0.00,,,0.00,Wunderground v.1.15,2013-01-27 23:40:00,
2013-01-27 18:45:00,35.2,27.4,30.49,East,89,3.0,9.0,73,0.00,,,0.00,Wunderground v.1.15,2013-01-27 23:45:00,
2013-01-27 18:50:00,35.1,27.3,30.50,SE,124,3.0,3.0,73,0.00,,,0.00,Wunderground v.1.15,2013-01-27 23:50:00,
2013-01-27 18:55:00,35.1,27.3,30.50,SE,140,3.0,4.0,73,0.00,,,0.00,Wunderground v.1.15,2013-01-27 23:55:00,
2013-01-27 19:15:00,34.9,27.5,30.49,SE,126,4.0,4.0,74,0.00,,,0.00,Wunderground v.1.15,2013-01-28 00:15:00,
2013-01-27 19:20:00,34.9,27.5,30.50,East,100,3.0,9.0,74,0.00,,,0.00,Wunderground v.1.15,2013-01-28 00:20:00,
2013-01-27 19:25:00,34.8,27.0,30.49,SE,146,3.0,9.0,73,0.00,,,0.00,Wunderground v.1.15,2013-01-28 00:25:00,
2013-01-27 19:30:00,34.8,27.4,30.49,SSE,153,4.0,9.0,74,0.00,,,0.00,Wunderground v.1.15,2013-01-28 00:30:00,
2013-01-27 19:35:00,34.7,27.3,30.49,South,176,4.0,4.0,74,0.00,,,0.00,Wunderground v.1.15,2013-01-28 00:35:00,
2013-01-27 19:40:00,34.7,27.3,30.50,SW,225,4.0,9.0,74,0.00,,,0.00,Wunderground v.1.15,2013-01-28 00:40:00,
2013-01-27 19:45:00,34.7,27.3,30.49,SE,124,3.0,3.0,74,0.00,,,0.00,Wunderground v.1.15,2013-01-28 00:45:00,
2013-01-27 19:50:00,34.7,27.3,30.49,East,100,3.0,9.0,74,0.00,,,0.00,Wunderground v.1.15,2013-01-28 00:50:00,
2013-01-27 19:55:00,34.7,27.3,30.49,ESE,105,3.0,9.0,74,0.00,,,0.00,Wunderground v.1.15,2013-01-28 00:55:00,
2013-01-27 20:00:00,34.6,27.5,30.49,SSW,192,3.0,3.0,75,0.00,,,0.00,Wunderground v.1.15,2013-01-28 01:00:00,